sensor_id;sensor_type;location;lat;lon;timestamp;pressure;altitude;pressure_sealevel;temperature;humidity
50380;BME280;37474;59.468;18.040;2022-09-12T00:01:03;101421.97;;;5.41;100.00
50380;BME280;37474;59.468;18.040;2022-09-12T00:03:33;101402.31;;;5.31;100.00
50380;BME280;37474;59.468;18.040;2022-09-12T00:06:06;101404.13;;;5.27;100.00
50380;BME280;37474;59.468;18.040;2022-09-12T00:08:36;101420.88;;;5.17;100.00
50380;BME280;37474;59.468;18.040;2022-09-12T00:11:10;101393.22;;;5.14;100.00
50380;BME280;37474;59.468;18.040;2022-09-12T00:13:41;101428.09;;;5.38;100.00
50380;BME280;37474;59.468;18.040;2022-09-12T00:16:21;101397.22;;;5.26;100.00
50380;BME280;37474;59.468;18.040;2022-09-12T00:18:49;101398.25;;;4.86;100.00
50380;BME280;37474;59.468;18.040;2022-09-12T00:21:22;101426.53;;;4.97;100.00
50380;BME280;37474;59.468;18.040;2022-09-12T00:23:51;101401.81;;;4.82;100.00
50380;BME280;37474;59.468;18.040;2022-09-12T00:26:21;101431.03;;;4.90;100.00
50380;BME280;37474;59.468;18.040;2022-09-12T00:28:52;101434.59;;;5.20;100.00
50380;BME280;37474;59.468;18.040;2022-09-12T00:31:26;101397.16;;;4.95;100.00
50380;BME280;37474;59.468;18.040;2022-09-12T00:33:58;101399.75;;;4.95;100.00
50380;BME280;37474;59.468;18.040;2022-09-12T00:36:28;101433.19;;;5.09;100.00
50380;BME280;37474;59.468;18.040;2022-09-12T00:39:04;101429.72;;;5.08;100.00
50380;BME280;37474;59.468;18.040;2022-09-12T00:41:35;101431.25;;;5.17;100.00
50380;BME280;37474;59.468;18.040;2022-09-12T00:44:44;101406.50;;;5.02;100.00
50380;BME280;37474;59.468;18.040;2022-09-12T00:47:20;101409.28;;;4.95;100.00
50380;BME280;37474;59.468;18.040;2022-09-12T00:49:57;101424.78;;;4.98;100.00
50380;BME280;37474;59.468;18.040;2022-09-12T00:52:30;101419.06;;;4.83;100.00
50380;BME280;37474;59.468;18.040;2022-09-12T00:55:06;101400.09;;;4.81;100.00
50380;BME280;37474;59.468;18.040;2022-09-12T00:57:39;101397.31;;;4.89;100.00
50380;BME280;37474;59.468;18.040;2022-09-12T01:00:17;101422.09;;;5.02;100.00
50380;BME280;37474;59.468;18.040;2022-09-12T01:02:50;101414.94;;;5.12;100.00
50380;BME280;37474;59.468;18.040;2022-09-12T01:05:27;101422.66;;;5.15;100.00
50380;BME280;37474;59.468;18.040;2022-09-12T01:08:00;101409.56;;;5.19;100.00
50380;BME280;37474;59.468;18.040;2022-09-12T01:10:33;101402.72;;;5.15;100.00
50380;BME280;37474;59.468;18.040;2022-09-12T01:13:05;101415.13;;;5.37;100.00
50380;BME280;37474;59.468;18.040;2022-09-12T01:15:39;101388.13;;;5.11;100.00
50380;BME280;37474;59.468;18.040;2022-09-12T01:18:15;101412.41;;;5.09;100.00
50380;BME280;37474;59.468;18.040;2022-09-12T01:20:56;101402.13;;;5.04;100.00
50380;BME280;37474;59.468;18.040;2022-09-12T01:26:48;101406.56;;;5.01;100.00
50380;BME280;37474;59.468;18.040;2022-09-12T01:29:35;101392.44;;;4.75;100.00
50380;BME280;37474;59.468;18.040;2022-09-12T01:32:19;101410.84;;;5.02;100.00
50380;BME280;37474;59.468;18.040;2022-09-12T01:34:58;101403.88;;;5.04;100.00
50380;BME280;37474;59.468;18.040;2022-09-12T01:37:37;101386.16;;;4.85;100.00
50380;BME280;37474;59.468;18.040;2022-09-12T01:40:15;101396.75;;;4.76;100.00
50380;BME280;37474;59.468;18.040;2022-09-12T01:42:55;101388.00;;;4.80;100.00
50380;BME280;37474;59.468;18.040;2022-09-12T01:45:36;101382.66;;;4.86;100.00
50380;BME280;37474;59.468;18.040;2022-09-12T01:48:14;101382.03;;;4.77;100.00
50380;BME280;37474;59.468;18.040;2022-09-12T01:50:49;101382.66;;;4.86;100.00
50380;BME280;37474;59.468;18.040;2022-09-12T01:53:24;101403.22;;;4.96;100.00
50380;BME280;37474;59.468;18.040;2022-09-12T01:56:01;101374.88;;;4.86;100.00
50380;BME280;37474;59.468;18.040;2022-09-12T01:58:37;101396.09;;;5.04;100.00
50380;BME280;37474;59.468;18.040;2022-09-12T02:01:16;101405.88;;;4.92;100.00
50380;BME280;37474;59.468;18.040;2022-09-12T02:04:06;101401.84;;;4.81;100.00
50380;BME280;37474;59.468;18.040;2022-09-12T02:06:50;101402.25;;;4.63;100.00
50380;BME280;37474;59.468;18.040;2022-09-12T02:09:28;101403.72;;;4.74;100.00
50380;BME280;37474;59.468;18.040;2022-09-12T02:12:06;101403.97;;;4.64;100.00
50380;BME280;37474;59.468;18.040;2022-09-12T02:14:46;101399.94;;;4.50;100.00
50380;BME280;37474;59.468;18.040;2022-09-12T02:17:21;101412.13;;;4.47;100.00
50380;BME280;37474;59.468;18.040;2022-09-12T02:20:00;101403.72;;;4.36;100.00
50380;BME280;37474;59.468;18.040;2022-09-12T02:22:36;101395.91;;;4.37;100.00
50380;BME280;37474;59.468;18.040;2022-09-12T02:25:09;101392.63;;;4.29;100.00
50380;BME280;37474;59.468;18.040;2022-09-12T02:27:46;101416.50;;;4.45;100.00
50380;BME280;37474;59.468;18.040;2022-09-12T02:30:21;101402.44;;;4.55;100.00
50380;BME280;37474;59.468;18.040;2022-09-12T02:32:59;101405.78;;;4.60;100.00
50380;BME280;37474;59.468;18.040;2022-09-12T02:35:39;101386.06;;;4.53;100.00
50380;BME280;37474;59.468;18.040;2022-09-12T02:38:23;101400.25;;;4.75;100.00
50380;BME280;37474;59.468;18.040;2022-09-12T02:40:58;101355.88;;;4.49;100.00
50380;BME280;37474;59.468;18.040;2022-09-12T02:43:35;101358.19;;;4.22;100.00
50380;BME280;37474;59.468;18.040;2022-09-12T02:46:18;101387.47;;;4.27;100.00
50380;BME280;37474;59.468;18.040;2022-09-12T02:48:55;101383.25;;;4.23;100.00
50380;BME280;37474;59.468;18.040;2022-09-12T02:54:54;101393.84;;;4.53;100.00
50380;BME280;37474;59.468;18.040;2022-09-12T02:57:24;101396.06;;;4.68;100.00
50380;BME280;37474;59.468;18.040;2022-09-12T02:59:56;101401.13;;;4.74;100.00
50380;BME280;37474;59.468;18.040;2022-09-12T03:02:33;101396.47;;;4.88;100.00
50380;BME280;37474;59.468;18.040;2022-09-12T03:05:20;101401.28;;;5.04;100.00
50380;BME280;37474;59.468;18.040;2022-09-12T03:08:15;101399.88;;;4.90;100.00
50380;BME280;37474;59.468;18.040;2022-09-12T03:13:51;101400.91;;;4.83;100.00
50380;BME280;37474;59.468;18.040;2022-09-12T03:16:31;101402.50;;;4.89;100.00
50380;BME280;37474;59.468;18.040;2022-09-12T03:19:08;101403.66;;;5.13;100.00
50380;BME280;37474;59.468;18.040;2022-09-12T03:21:49;101401.06;;;5.13;100.00
50380;BME280;37474;59.468;18.040;2022-09-12T03:24:25;101401.56;;;5.25;100.00
50380;BME280;37474;59.468;18.040;2022-09-12T03:27:06;101390.19;;;5.31;100.00
50380;BME280;37474;59.468;18.040;2022-09-12T03:29:39;101390.75;;;5.42;100.00
50380;BME280;37474;59.468;18.040;2022-09-12T03:32:10;101400.75;;;5.57;100.00
50380;BME280;37474;59.468;18.040;2022-09-12T03:34:38;101385.28;;;5.53;100.00
50380;BME280;37474;59.468;18.040;2022-09-12T03:37:08;101399.75;;;5.62;100.00
50380;BME280;37474;59.468;18.040;2022-09-12T03:39:38;101395.94;;;5.75;100.00
50380;BME280;37474;59.468;18.040;2022-09-12T03:42:07;101382.03;;;5.76;100.00
50380;BME280;37474;59.468;18.040;2022-09-12T03:44:37;101384.41;;;5.52;100.00
50380;BME280;37474;59.468;18.040;2022-09-12T03:47:07;101381.69;;;5.57;100.00
50380;BME280;37474;59.468;18.040;2022-09-12T03:49:36;101386.88;;;5.57;100.00
50380;BME280;37474;59.468;18.040;2022-09-12T03:52:06;101388.47;;;5.63;100.00
50380;BME280;37474;59.468;18.040;2022-09-12T03:54:36;101383.41;;;5.58;100.00
50380;BME280;37474;59.468;18.040;2022-09-12T03:57:08;101395.50;;;5.59;100.00
50380;BME280;37474;59.468;18.040;2022-09-12T03:59:36;101383.53;;;5.53;100.00
50380;BME280;37474;59.468;18.040;2022-09-12T04:02:04;101392.69;;;5.67;100.00
50380;BME280;37474;59.468;18.040;2022-09-12T04:04:34;101385.56;;;5.42;100.00
50380;BME280;37474;59.468;18.040;2022-09-12T04:07:03;101388.22;;;5.39;100.00
50380;BME280;37474;59.468;18.040;2022-09-12T04:09:31;101392.69;;;5.34;100.00
50380;BME280;37474;59.468;18.040;2022-09-12T04:12:01;101398.53;;;5.42;100.00
50380;BME280;37474;59.468;18.040;2022-09-12T04:14:33;101387.56;;;5.31;100.00
50380;BME280;37474;59.468;18.040;2022-09-12T04:17:01;101391.88;;;5.32;100.00
50380;BME280;37474;59.468;18.040;2022-09-12T04:19:29;101388.63;;;5.24;100.00
50380;BME280;37474;59.468;18.040;2022-09-12T04:21:58;101394.09;;;5.15;100.00
50380;BME280;37474;59.468;18.040;2022-09-12T04:24:26;101380.38;;;5.10;100.00
50380;BME280;37474;59.468;18.040;2022-09-12T04:26:56;101392.31;;;5.17;100.00
50380;BME280;37474;59.468;18.040;2022-09-12T04:29:34;101389.13;;;5.06;100.00
50380;BME280;37474;59.468;18.040;2022-09-12T04:32:04;101387.50;;;5.02;100.00
50380;BME280;37474;59.468;18.040;2022-09-12T04:34:32;101395.72;;;5.19;100.00
50380;BME280;37474;59.468;18.040;2022-09-12T04:37:02;101386.84;;;5.26;100.00
50380;BME280;37474;59.468;18.040;2022-09-12T04:39:32;101385.47;;;5.13;100.00
50380;BME280;37474;59.468;18.040;2022-09-12T04:42:03;101390.03;;;5.03;100.00
50380;BME280;37474;59.468;18.040;2022-09-12T04:44:31;101394.31;;;5.06;100.00
50380;BME280;37474;59.468;18.040;2022-09-12T04:47:02;101394.13;;;5.13;100.00
50380;BME280;37474;59.468;18.040;2022-09-12T04:49:32;101395.72;;;5.19;100.00
50380;BME280;37474;59.468;18.040;2022-09-12T04:52:01;101396.31;;;5.29;100.00
50380;BME280;37474;59.468;18.040;2022-09-12T04:54:31;101406.34;;;5.42;100.00
50380;BME280;37474;59.468;18.040;2022-09-12T04:57:01;101405.28;;;5.49;100.00
50380;BME280;37474;59.468;18.040;2022-09-12T04:59:31;101403.09;;;5.67;100.00
50380;BME280;37474;59.468;18.040;2022-09-12T05:02:01;101402.19;;;5.68;100.00
50380;BME280;37474;59.468;18.040;2022-09-12T05:04:45;101399.47;;;5.72;100.00
50380;BME280;37474;59.468;18.040;2022-09-12T05:07:13;101390.63;;;5.79;100.00
50380;BME280;37474;59.468;18.040;2022-09-12T05:09:42;101396.19;;;5.98;100.00
50380;BME280;37474;59.468;18.040;2022-09-12T05:12:12;101388.13;;;6.07;100.00
50380;BME280;37474;59.468;18.040;2022-09-12T05:14:40;101378.28;;;6.17;100.00
50380;BME280;37474;59.468;18.040;2022-09-12T05:17:11;101387.28;;;6.35;100.00
50380;BME280;37474;59.468;18.040;2022-09-12T05:19:41;101388.19;;;6.62;100.00
50380;BME280;37474;59.468;18.040;2022-09-12T05:22:09;101380.78;;;6.76;100.00
50380;BME280;37474;59.468;18.040;2022-09-12T05:24:39;101381.31;;;6.59;100.00
50380;BME280;37474;59.468;18.040;2022-09-12T05:27:17;101381.22;;;6.62;100.00
50380;BME280;37474;59.468;18.040;2022-09-12T05:29:50;101371.97;;;7.06;100.00
50380;BME280;37474;59.468;18.040;2022-09-12T05:32:19;101380.59;;;7.33;100.00
50380;BME280;37474;59.468;18.040;2022-09-12T05:34:47;101385.06;;;7.54;100.00
50380;BME280;37474;59.468;18.040;2022-09-12T05:37:17;101382.06;;;7.65;100.00
50380;BME280;37474;59.468;18.040;2022-09-12T05:39:45;101382.81;;;7.44;100.00
50380;BME280;37474;59.468;18.040;2022-09-12T05:42:12;101388.66;;;7.75;100.00
50380;BME280;37474;59.468;18.040;2022-09-12T05:44:44;101394.63;;;7.79;100.00
50380;BME280;37474;59.468;18.040;2022-09-12T05:47:12;101383.91;;;7.86;100.00
50380;BME280;37474;59.468;18.040;2022-09-12T05:49:44;101391.78;;;8.08;100.00
50380;BME280;37474;59.468;18.040;2022-09-12T05:52:17;101387.59;;;8.28;100.00
50380;BME280;37474;59.468;18.040;2022-09-12T05:54:47;101395.19;;;8.34;100.00
50380;BME280;37474;59.468;18.040;2022-09-12T05:57:15;101376.16;;;8.53;100.00
50380;BME280;37474;59.468;18.040;2022-09-12T05:59:47;101374.81;;;8.87;100.00
50380;BME280;37474;59.468;18.040;2022-09-12T06:02:17;101382.75;;;9.26;100.00
50380;BME280;37474;59.468;18.040;2022-09-12T06:04:46;101381.06;;;9.25;100.00
50380;BME280;37474;59.468;18.040;2022-09-12T06:07:16;101391.03;;;9.56;100.00
50380;BME280;37474;59.468;18.040;2022-09-12T06:09:46;101386.31;;;9.64;100.00
50380;BME280;37474;59.468;18.040;2022-09-12T06:12:14;101388.06;;;9.64;100.00
50380;BME280;37474;59.468;18.040;2022-09-12T06:14:44;101388.38;;;9.76;100.00
50380;BME280;37474;59.468;18.040;2022-09-12T06:17:14;101388.69;;;9.89;100.00
50380;BME280;37474;59.468;18.040;2022-09-12T06:19:43;101382.25;;;9.96;100.00
50380;BME280;37474;59.468;18.040;2022-09-12T06:22:13;101375.81;;;10.24;100.00
50380;BME280;37474;59.468;18.040;2022-09-12T06:24:43;101398.88;;;10.70;100.00
50380;BME280;37474;59.468;18.040;2022-09-12T06:27:13;101387.75;;;11.01;100.00
50380;BME280;37474;59.468;18.040;2022-09-12T06:29:40;101391.25;;;11.36;100.00
50380;BME280;37474;59.468;18.040;2022-09-12T06:32:10;101392.34;;;11.65;100.00
50380;BME280;37474;59.468;18.040;2022-09-12T06:34:40;101390.84;;;11.94;100.00
50380;BME280;37474;59.468;18.040;2022-09-12T06:37:08;101384.88;;;12.24;100.00
50380;BME280;37474;59.468;18.040;2022-09-12T06:39:40;101397.00;;;12.42;100.00
50380;BME280;37474;59.468;18.040;2022-09-12T06:42:10;101389.94;;;12.58;100.00
50380;BME280;37474;59.468;18.040;2022-09-12T06:44:41;101386.09;;;12.80;100.00
50380;BME280;37474;59.468;18.040;2022-09-12T06:47:10;101382.22;;;13.17;100.00
50380;BME280;37474;59.468;18.040;2022-09-12T06:49:40;101372.69;;;13.58;100.00
50380;BME280;37474;59.468;18.040;2022-09-12T06:52:10;101373.63;;;14.00;100.00
50380;BME280;37474;59.468;18.040;2022-09-12T06:54:39;101370.88;;;14.30;100.00
50380;BME280;37474;59.468;18.040;2022-09-12T06:57:09;101369.09;;;14.57;100.00
50380;BME280;37474;59.468;18.040;2022-09-12T06:59:39;101371.78;;;14.97;100.00
50380;BME280;37474;59.468;18.040;2022-09-12T07:02:07;101356.44;;;15.42;100.00
50380;BME280;37474;59.468;18.040;2022-09-12T07:04:37;101352.09;;;15.91;91.80
50380;BME280;37474;59.468;18.040;2022-09-12T07:07:05;101351.41;;;16.13;89.07
50380;BME280;37474;59.468;18.040;2022-09-12T07:09:33;101362.56;;;15.80;93.25
50380;BME280;37474;59.468;18.040;2022-09-12T07:12:03;101361.53;;;16.19;91.44
50380;BME280;37474;59.468;18.040;2022-09-12T07:14:33;101361.88;;;16.15;93.36
50380;BME280;37474;59.468;18.040;2022-09-12T07:17:01;101352.72;;;16.31;91.37
50380;BME280;37474;59.468;18.040;2022-09-12T07:19:33;101363.69;;;16.01;92.49
50380;BME280;37474;59.468;18.040;2022-09-12T07:22:04;101362.53;;;16.06;90.63
50380;BME280;37474;59.468;18.040;2022-09-12T07:24:36;101358.88;;;16.32;87.67
50380;BME280;37474;59.468;18.040;2022-09-12T07:27:07;101364.81;;;16.23;87.74
50380;BME280;37474;59.468;18.040;2022-09-12T07:29:35;101375.63;;;16.07;91.57
50380;BME280;37474;59.468;18.040;2022-09-12T07:32:07;101353.50;;;16.21;90.08
50380;BME280;37474;59.468;18.040;2022-09-12T07:34:37;101364.00;;;16.10;91.14
50380;BME280;37474;59.468;18.040;2022-09-12T07:37:05;101350.84;;;16.21;91.20
50380;BME280;37474;59.468;18.040;2022-09-12T07:39:35;101362.19;;;16.47;90.02
50380;BME280;37474;59.468;18.040;2022-09-12T07:42:03;101367.09;;;16.88;90.20
50380;BME280;37474;59.468;18.040;2022-09-12T07:44:33;101366.88;;;16.43;93.91
50380;BME280;37474;59.468;18.040;2022-09-12T07:47:28;101365.25;;;16.17;94.40
50380;BME280;37474;59.468;18.040;2022-09-12T07:54:43;101367.06;;;16.03;89.69
50380;BME280;37474;59.468;18.040;2022-09-12T07:57:12;101372.88;;;16.09;88.10
50380;BME280;37474;59.468;18.040;2022-09-12T07:59:44;101365.28;;;16.04;88.08
50380;BME280;37474;59.468;18.040;2022-09-12T08:02:18;101365.56;;;16.49;85.07
50380;BME280;37474;59.468;18.040;2022-09-12T08:04:49;101368.47;;;17.05;81.59
50380;BME280;37474;59.468;18.040;2022-09-12T08:07:19;101364.53;;;17.10;78.08
50380;BME280;37474;59.468;18.040;2022-09-12T08:09:47;101351.28;;;17.10;78.54
50380;BME280;37474;59.468;18.040;2022-09-12T08:12:16;101367.44;;;17.18;82.93
50380;BME280;37474;59.468;18.040;2022-09-12T08:14:48;101358.50;;;17.08;79.88
50380;BME280;37474;59.468;18.040;2022-09-12T08:17:16;101359.50;;;17.18;78.99
50380;BME280;37474;59.468;18.040;2022-09-12T08:19:44;101363.63;;;17.33;79.73
50380;BME280;37474;59.468;18.040;2022-09-12T08:22:15;101360.69;;;17.72;76.91
50380;BME280;37474;59.468;18.040;2022-09-12T08:24:49;101357.19;;;17.82;78.37
50380;BME280;37474;59.468;18.040;2022-09-12T08:27:19;101348.16;;;17.96;75.97
50380;BME280;37474;59.468;18.040;2022-09-12T08:29:48;101359.56;;;18.19;70.13
50380;BME280;37474;59.468;18.040;2022-09-12T08:32:18;101357.44;;;17.68;69.06
50380;BME280;37474;59.468;18.040;2022-09-12T08:34:48;101355.50;;;17.70;68.79
50380;BME280;37474;59.468;18.040;2022-09-12T08:37:16;101361.03;;;17.89;72.71
50380;BME280;37474;59.468;18.040;2022-09-12T08:39:45;101343.94;;;17.82;74.23
50380;BME280;37474;59.468;18.040;2022-09-12T08:42:21;101352.41;;;18.42;69.27
50380;BME280;37474;59.468;18.040;2022-09-12T08:45:06;101341.63;;;18.00;70.73
50380;BME280;37474;59.468;18.040;2022-09-12T08:47:39;101359.34;;;18.22;72.39
50380;BME280;37474;59.468;18.040;2022-09-12T08:50:14;101357.56;;;17.78;68.85
50380;BME280;37474;59.468;18.040;2022-09-12T08:52:49;101355.84;;;18.10;68.04
50380;BME280;37474;59.468;18.040;2022-09-12T08:55:32;101346.38;;;18.51;69.12
50380;BME280;37474;59.468;18.040;2022-09-12T08:58:10;101350.31;;;17.80;69.78
50380;BME280;37474;59.468;18.040;2022-09-12T09:00:48;101339.47;;;18.05;66.21
50380;BME280;37474;59.468;18.040;2022-09-12T09:03:29;101348.63;;;18.01;69.36
50380;BME280;37474;59.468;18.040;2022-09-12T09:06:10;101342.50;;;18.55;67.51
50380;BME280;37474;59.468;18.040;2022-09-12T09:08:55;101347.06;;;18.10;65.23
50380;BME280;37474;59.468;18.040;2022-09-12T09:11:55;101342.72;;;17.97;68.29
50380;BME280;37474;59.468;18.040;2022-09-12T09:14:39;101326.94;;;17.74;68.63
50380;BME280;37474;59.468;18.040;2022-09-12T09:17:24;101340.31;;;17.83;68.81
50380;BME280;37474;59.468;18.040;2022-09-12T09:20:00;101332.41;;;18.38;66.56
50380;BME280;37474;59.468;18.040;2022-09-12T09:22:38;101336.66;;;18.29;65.24
50380;BME280;37474;59.468;18.040;2022-09-12T09:25:15;101330.94;;;18.45;66.99
50380;BME280;37474;59.468;18.040;2022-09-12T09:27:53;101324.81;;;18.44;67.34
50380;BME280;37474;59.468;18.040;2022-09-12T09:30:26;101319.25;;;18.79;64.13
50380;BME280;37474;59.468;18.040;2022-09-12T09:32:59;101325.34;;;18.16;64.95
50380;BME280;37474;59.468;18.040;2022-09-12T09:35:37;101308.00;;;18.12;66.46
50380;BME280;37474;59.468;18.040;2022-09-12T09:38:22;101311.25;;;18.58;63.93
50380;BME280;37474;59.468;18.040;2022-09-12T09:46:16;101296.19;;;18.80;61.38
50380;BME280;37474;59.468;18.040;2022-09-12T09:48:49;101310.84;;;18.31;61.39
50380;BME280;37474;59.468;18.040;2022-09-12T09:51:27;101305.66;;;18.93;63.73
50380;BME280;37474;59.468;18.040;2022-09-12T09:54:09;101297.44;;;19.17;60.47
50380;BME280;37474;59.468;18.040;2022-09-12T09:56:43;101306.31;;;18.86;62.16
50380;BME280;37474;59.468;18.040;2022-09-12T09:59:19;101284.00;;;18.56;58.89
50380;BME280;37474;59.468;18.040;2022-09-12T10:01:54;101305.25;;;18.45;62.86
50380;BME280;37474;59.468;18.040;2022-09-12T10:04:26;101315.50;;;18.61;61.71
50380;BME280;37474;59.468;18.040;2022-09-12T10:06:59;101307.75;;;18.58;60.91
50380;BME280;37474;59.468;18.040;2022-09-12T10:09:30;101311.16;;;18.49;62.82
50380;BME280;37474;59.468;18.040;2022-09-12T10:12:20;101310.19;;;18.61;60.23
50380;BME280;37474;59.468;18.040;2022-09-12T10:14:56;101300.09;;;18.97;61.32
50380;BME280;37474;59.468;18.040;2022-09-12T10:17:38;101299.09;;;18.77;59.88
50380;BME280;37474;59.468;18.040;2022-09-12T10:20:31;101302.50;;;19.00;59.75
50380;BME280;37474;59.468;18.040;2022-09-12T10:23:03;101297.13;;;18.90;59.33
50380;BME280;37474;59.468;18.040;2022-09-12T10:25:37;101288.94;;;19.23;60.65
50380;BME280;37474;59.468;18.040;2022-09-12T10:31:13;101268.19;;;20.38;53.88
50380;BME280;37474;59.468;18.040;2022-09-12T10:33:45;101272.31;;;20.02;56.43
50380;BME280;37474;59.468;18.040;2022-09-12T10:36:23;101281.31;;;19.09;58.76
50380;BME280;37474;59.468;18.040;2022-09-12T10:38:57;101284.94;;;19.08;60.53
50380;BME280;37474;59.468;18.040;2022-09-12T10:41:35;101278.59;;;18.79;61.52
50380;BME280;37474;59.468;18.040;2022-09-12T10:44:12;101275.69;;;18.82;61.56
50380;BME280;37474;59.468;18.040;2022-09-12T10:46:44;101275.16;;;18.88;61.24
50380;BME280;37474;59.468;18.040;2022-09-12T10:49:22;101277.47;;;19.23;57.71
50380;BME280;37474;59.468;18.040;2022-09-12T10:51:54;101275.06;;;19.71;55.27
50380;BME280;37474;59.468;18.040;2022-09-12T10:54:25;101278.00;;;19.78;55.09
50380;BME280;37474;59.468;18.040;2022-09-12T11:00:03;101277.97;;;19.58;56.03
50380;BME280;37474;59.468;18.040;2022-09-12T11:02:47;101265.16;;;19.73;57.94
50380;BME280;37474;59.468;18.040;2022-09-12T11:05:25;101278.72;;;19.19;59.82
50380;BME280;37474;59.468;18.040;2022-09-12T11:08:37;101274.94;;;19.21;59.60
50380;BME280;37474;59.468;18.040;2022-09-12T11:15:02;101282.34;;;18.76;62.18
50380;BME280;37474;59.468;18.040;2022-09-12T11:17:43;101276.59;;;18.39;59.64
50380;BME280;37474;59.468;18.040;2022-09-12T11:20:34;101274.75;;;18.08;61.72
50380;BME280;37474;59.468;18.040;2022-09-12T11:26:59;101268.38;;;18.42;60.39
50380;BME280;37474;59.468;18.040;2022-09-12T11:29:46;101267.19;;;18.35;57.69
50380;BME280;37474;59.468;18.040;2022-09-12T11:33:06;101270.06;;;18.43;59.55
50380;BME280;37474;59.468;18.040;2022-09-12T11:36:46;101264.59;;;18.77;57.46
50380;BME280;37474;59.468;18.040;2022-09-12T11:39:34;101275.22;;;18.77;56.25
50380;BME280;37474;59.468;18.040;2022-09-12T11:42:15;101262.75;;;18.36;59.68
50380;BME280;37474;59.468;18.040;2022-09-12T11:46:10;101265.00;;;18.40;59.08
50380;BME280;37474;59.468;18.040;2022-09-12T11:48:52;101270.16;;;18.53;59.35
50380;BME280;37474;59.468;18.040;2022-09-12T11:51:49;101266.75;;;18.83;57.57
50380;BME280;37474;59.468;18.040;2022-09-12T11:54:23;101249.97;;;19.03;58.15
50380;BME280;37474;59.468;18.040;2022-09-12T11:57:06;101261.00;;;20.09;54.49
50380;BME280;37474;59.468;18.040;2022-09-12T12:00:15;101257.31;;;19.81;52.32
50380;BME280;37474;59.468;18.040;2022-09-12T12:03:00;101260.41;;;19.46;51.14
50380;BME280;37474;59.468;18.040;2022-09-12T12:05:48;101258.97;;;19.42;55.94
50380;BME280;37474;59.468;18.040;2022-09-12T12:08:23;101243.03;;;19.42;54.27
50380;BME280;37474;59.468;18.040;2022-09-12T12:10:57;101244.47;;;18.95;55.27
50380;BME280;37474;59.468;18.040;2022-09-12T12:13:29;101249.53;;;18.98;56.00
50380;BME280;37474;59.468;18.040;2022-09-12T12:16:13;101241.66;;;19.17;55.05
50380;BME280;37474;59.468;18.040;2022-09-12T12:18:43;101250.44;;;19.69;53.16
50380;BME280;37474;59.468;18.040;2022-09-12T12:21:34;101244.91;;;19.00;53.53
50380;BME280;37474;59.468;18.040;2022-09-12T12:24:13;101251.47;;;18.75;54.06
50380;BME280;37474;59.468;18.040;2022-09-12T12:26:57;101233.31;;;18.39;55.70
50380;BME280;37474;59.468;18.040;2022-09-12T12:37:58;101245.44;;;19.15;51.82
50380;BME280;37474;59.468;18.040;2022-09-12T13:00:25;101226.44;;;19.19;53.31
50380;BME280;37474;59.468;18.040;2022-09-12T13:03:09;101217.19;;;19.14;52.76
50380;BME280;37474;59.468;18.040;2022-09-12T13:05:53;101209.13;;;19.25;53.04
50380;BME280;37474;59.468;18.040;2022-09-12T13:08:37;101212.00;;;19.43;51.83
50380;BME280;37474;59.468;18.040;2022-09-12T13:11:36;101213.88;;;19.52;51.49
50380;BME280;37474;59.468;18.040;2022-09-12T13:24:50;101194.50;;;20.67;46.67
50380;BME280;37474;59.468;18.040;2022-09-12T13:27:23;101210.22;;;20.61;45.71
50380;BME280;37474;59.468;18.040;2022-09-12T13:30:05;101207.03;;;19.59;48.80
50380;BME280;37474;59.468;18.040;2022-09-12T13:32:36;101217.06;;;20.15;47.93
50380;BME280;37474;59.468;18.040;2022-09-12T13:35:11;101207.53;;;20.12;46.43
50380;BME280;37474;59.468;18.040;2022-09-12T13:37:50;101195.63;;;19.97;46.59
50380;BME280;37474;59.468;18.040;2022-09-12T13:40:29;101195.91;;;19.75;47.29
50380;BME280;37474;59.468;18.040;2022-09-12T13:43:10;101200.59;;;19.52;49.10
50380;BME280;37474;59.468;18.040;2022-09-12T13:45:42;101187.88;;;19.25;48.54
50380;BME280;37474;59.468;18.040;2022-09-12T13:48:16;101184.25;;;18.95;52.09
50380;BME280;37474;59.468;18.040;2022-09-12T13:50:49;101177.75;;;18.58;54.18
50380;BME280;37474;59.468;18.040;2022-09-12T13:53:26;101184.84;;;18.69;53.38
50380;BME280;37474;59.468;18.040;2022-09-12T13:55:57;101188.28;;;18.48;53.33
50380;BME280;37474;59.468;18.040;2022-09-12T13:58:30;101184.47;;;18.41;54.27
50380;BME280;37474;59.468;18.040;2022-09-12T14:01:01;101187.06;;;18.73;51.58
50380;BME280;37474;59.468;18.040;2022-09-12T14:03:38;101181.25;;;19.10;52.27
50380;BME280;37474;59.468;18.040;2022-09-12T14:06:25;101175.19;;;18.98;51.17
50380;BME280;37474;59.468;18.040;2022-09-12T14:08:58;101192.53;;;19.02;49.30
50380;BME280;37474;59.468;18.040;2022-09-12T14:11:29;101194.59;;;18.99;50.89
50380;BME280;37474;59.468;18.040;2022-09-12T14:14:18;101181.38;;;18.57;52.14
50380;BME280;37474;59.468;18.040;2022-09-12T14:16:48;101189.28;;;18.68;53.00
50380;BME280;37474;59.468;18.040;2022-09-12T14:19:24;101178.25;;;18.31;51.80
50380;BME280;37474;59.468;18.040;2022-09-12T14:21:55;101183.41;;;18.12;53.92
50380;BME280;37474;59.468;18.040;2022-09-12T14:24:30;101169.72;;;17.95;56.30
50380;BME280;37474;59.468;18.040;2022-09-12T14:26:59;101183.56;;;17.99;56.94
50380;BME280;37474;59.468;18.040;2022-09-12T14:29:31;101184.25;;;17.69;57.77
50380;BME280;37474;59.468;18.040;2022-09-12T14:32:01;101179.69;;;17.60;58.61
50380;BME280;37474;59.468;18.040;2022-09-12T14:34:35;101182.47;;;17.47;58.04